sensor_id;sensor_type;location;lat;lon;timestamp;P1;durP1;ratioP1;P2;durP2;ratioP2
26908;SDS011;14477;51.038;4.588;2022-08-06T00:00:33;2.08;;;0.93;;
26908;SDS011;14477;51.038;4.588;2022-08-06T00:02:58;1.53;;;0.90;;
26908;SDS011;14477;51.038;4.588;2022-08-06T00:05:24;2.83;;;0.80;;
26908;SDS011;14477;51.038;4.588;2022-08-06T00:07:51;1.50;;;0.80;;
26908;SDS011;14477;51.038;4.588;2022-08-06T00:10:18;0.95;;;0.80;;
26908;SDS011;14477;51.038;4.588;2022-08-06T00:12:44;2.07;;;0.80;;
26908;SDS011;14477;51.038;4.588;2022-08-06T00:15:11;1.55;;;0.80;;
26908;SDS011;14477;51.038;4.588;2022-08-06T00:17:37;1.63;;;0.82;;
26908;SDS011;14477;51.038;4.588;2022-08-06T00:20:04;2.00;;;0.80;;
26908;SDS011;14477;51.038;4.588;2022-08-06T00:22:31;1.80;;;1.02;;
26908;SDS011;14477;51.038;4.588;2022-08-06T00:24:57;1.33;;;0.90;;
26908;SDS011;14477;51.038;4.588;2022-08-06T00:27:23;1.48;;;0.88;;
26908;SDS011;14477;51.038;4.588;2022-08-06T00:29:48;2.00;;;0.80;;
26908;SDS011;14477;51.038;4.588;2022-08-06T00:32:15;1.50;;;0.73;;
26908;SDS011;14477;51.038;4.588;2022-08-06T00:34:41;2.20;;;0.82;;
26908;SDS011;14477;51.038;4.588;2022-08-06T00:37:06;1.30;;;0.80;;
26908;SDS011;14477;51.038;4.588;2022-08-06T00:39:32;1.43;;;0.80;;
26908;SDS011;14477;51.038;4.588;2022-08-06T00:41:58;1.38;;;0.82;;
26908;SDS011;14477;51.038;4.588;2022-08-06T00:44:24;2.38;;;0.90;;
26908;SDS011;14477;51.038;4.588;2022-08-06T00:46:50;1.43;;;0.90;;
26908;SDS011;14477;51.038;4.588;2022-08-06T00:49:17;1.38;;;0.82;;
26908;SDS011;14477;51.038;4.588;2022-08-06T00:51:42;1.85;;;0.90;;
26908;SDS011;14477;51.038;4.588;2022-08-06T00:54:09;1.13;;;0.70;;
26908;SDS011;14477;51.038;4.588;2022-08-06T00:56:35;0.83;;;0.50;;
26908;SDS011;14477;51.038;4.588;2022-08-06T00:59:01;1.40;;;0.63;;
26908;SDS011;14477;51.038;4.588;2022-08-06T01:01:26;2.28;;;0.70;;
26908;SDS011;14477;51.038;4.588;2022-08-06T01:03:52;1.90;;;0.80;;
26908;SDS011;14477;51.038;4.588;2022-08-06T01:06:19;2.38;;;0.70;;
26908;SDS011;14477;51.038;4.588;2022-08-06T01:08:45;1.60;;;0.70;;
26908;SDS011;14477;51.038;4.588;2022-08-06T01:11:11;3.10;;;0.97;;
26908;SDS011;14477;51.038;4.588;2022-08-06T01:13:37;0.93;;;0.70;;
26908;SDS011;14477;51.038;4.588;2022-08-06T01:16:05;1.88;;;0.82;;
26908;SDS011;14477;51.038;4.588;2022-08-06T01:18:39;2.13;;;0.77;;
26908;SDS011;14477;51.038;4.588;2022-08-06T01:21:18;1.10;;;0.70;;
26908;SDS011;14477;51.038;4.588;2022-08-06T01:27:38;0.88;;;0.70;;
26908;SDS011;14477;51.038;4.588;2022-08-06T01:29:43;1.50;;;0.80;;
26908;SDS011;14477;51.038;4.588;2022-08-06T01:32:16;1.83;;;0.80;;
26908;SDS011;14477;51.038;4.588;2022-08-06T01:34:51;2.58;;;0.80;;
26908;SDS011;14477;51.038;4.588;2022-08-06T01:37:20;1.10;;;0.85;;
26908;SDS011;14477;51.038;4.588;2022-08-06T01:39:50;1.80;;;0.80;;
26908;SDS011;14477;51.038;4.588;2022-08-06T01:42:20;1.52;;;0.80;;
26908;SDS011;14477;51.038;4.588;2022-08-06T01:44:48;1.40;;;0.83;;
26908;SDS011;14477;51.038;4.588;2022-08-06T01:47:16;1.75;;;0.95;;
26908;SDS011;14477;51.038;4.588;2022-08-06T01:49:48;2.15;;;0.73;;
26908;SDS011;14477;51.038;4.588;2022-08-06T01:52:15;2.45;;;1.00;;
26908;SDS011;14477;51.038;4.588;2022-08-06T01:54:44;1.80;;;0.90;;
26908;SDS011;14477;51.038;4.588;2022-08-06T01:57:13;1.97;;;0.90;;
26908;SDS011;14477;51.038;4.588;2022-08-06T01:59:43;0.77;;;0.75;;
26908;SDS011;14477;51.038;4.588;2022-08-06T02:02:13;1.55;;;0.93;;
26908;SDS011;14477;51.038;4.588;2022-08-06T02:04:43;2.22;;;0.80;;
26908;SDS011;14477;51.038;4.588;2022-08-06T02:07:11;1.92;;;1.10;;
26908;SDS011;14477;51.038;4.588;2022-08-06T02:09:40;1.20;;;0.90;;
26908;SDS011;14477;51.038;4.588;2022-08-06T02:12:13;1.17;;;0.70;;
26908;SDS011;14477;51.038;4.588;2022-08-06T02:14:40;0.88;;;0.73;;
26908;SDS011;14477;51.038;4.588;2022-08-06T02:17:13;2.47;;;0.80;;
26908;SDS011;14477;51.038;4.588;2022-08-06T02:19:46;2.08;;;0.70;;
26908;SDS011;14477;51.038;4.588;2022-08-06T02:22:15;1.23;;;0.70;;
26908;SDS011;14477;51.038;4.588;2022-08-06T02:24:41;1.27;;;1.00;;
26908;SDS011;14477;51.038;4.588;2022-08-06T02:27:08;1.98;;;1.02;;
26908;SDS011;14477;51.038;4.588;2022-08-06T02:29:36;1.40;;;0.80;;
26908;SDS011;14477;51.038;4.588;2022-08-06T02:32:03;1.23;;;0.73;;
26908;SDS011;14477;51.038;4.588;2022-08-06T02:34:29;0.97;;;0.70;;
26908;SDS011;14477;51.038;4.588;2022-08-06T02:36:56;1.52;;;0.80;;
26908;SDS011;14477;51.038;4.588;2022-08-06T02:39:35;1.00;;;0.70;;
26908;SDS011;14477;51.038;4.588;2022-08-06T02:44:58;1.40;;;0.80;;
26908;SDS011;14477;51.038;4.588;2022-08-06T02:50:01;1.52;;;0.70;;
26908;SDS011;14477;51.038;4.588;2022-08-06T02:52:48;1.05;;;0.70;;
26908;SDS011;14477;51.038;4.588;2022-08-06T02:55:20;1.27;;;0.70;;
26908;SDS011;14477;51.038;4.588;2022-08-06T02:57:51;1.57;;;0.83;;
26908;SDS011;14477;51.038;4.588;2022-08-06T03:00:19;2.90;;;0.80;;
26908;SDS011;14477;51.038;4.588;2022-08-06T03:02:47;1.30;;;0.80;;
26908;SDS011;14477;51.038;4.588;2022-08-06T03:05:17;1.27;;;0.90;;
26908;SDS011;14477;51.038;4.588;2022-08-06T03:07:44;0.98;;;0.80;;
26908;SDS011;14477;51.038;4.588;2022-08-06T03:10:13;0.90;;;0.80;;
26908;SDS011;14477;51.038;4.588;2022-08-06T03:12:41;0.98;;;0.70;;
26908;SDS011;14477;51.038;4.588;2022-08-06T03:15:08;1.23;;;0.70;;
26908;SDS011;14477;51.038;4.588;2022-08-06T03:17:35;1.48;;;0.75;;
26908;SDS011;14477;51.038;4.588;2022-08-06T03:20:03;1.05;;;0.70;;
26908;SDS011;14477;51.038;4.588;2022-08-06T03:22:31;1.43;;;0.70;;
26908;SDS011;14477;51.038;4.588;2022-08-06T03:24:59;1.85;;;0.75;;
26908;SDS011;14477;51.038;4.588;2022-08-06T03:27:27;0.90;;;0.70;;
26908;SDS011;14477;51.038;4.588;2022-08-06T03:29:54;1.10;;;0.70;;
26908;SDS011;14477;51.038;4.588;2022-08-06T03:32:21;1.15;;;0.70;;
26908;SDS011;14477;51.038;4.588;2022-08-06T03:34:47;1.23;;;0.70;;
26908;SDS011;14477;51.038;4.588;2022-08-06T03:37:15;1.02;;;0.60;;
26908;SDS011;14477;51.038;4.588;2022-08-06T03:39:43;1.98;;;0.80;;
26908;SDS011;14477;51.038;4.588;2022-08-06T03:42:11;0.90;;;0.80;;
26908;SDS011;14477;51.038;4.588;2022-08-06T03:44:36;1.53;;;0.60;;
26908;SDS011;14477;51.038;4.588;2022-08-06T03:47:11;1.85;;;0.70;;
26908;SDS011;14477;51.038;4.588;2022-08-06T03:50:00;0.90;;;0.70;;
26908;SDS011;14477;51.038;4.588;2022-08-06T03:52:31;1.10;;;0.70;;
26908;SDS011;14477;51.038;4.588;2022-08-06T03:55:01;0.80;;;0.60;;
26908;SDS011;14477;51.038;4.588;2022-08-06T03:57:32;2.28;;;0.90;;
26908;SDS011;14477;51.038;4.588;2022-08-06T04:00:00;0.85;;;0.75;;
26908;SDS011;14477;51.038;4.588;2022-08-06T04:02:29;1.05;;;0.80;;
26908;SDS011;14477;51.038;4.588;2022-08-06T04:04:57;0.85;;;0.80;;
26908;SDS011;14477;51.038;4.588;2022-08-06T04:07:25;1.13;;;0.70;;
26908;SDS011;14477;51.038;4.588;2022-08-06T04:09:52;1.55;;;0.80;;
26908;SDS011;14477;51.038;4.588;2022-08-06T04:12:18;0.90;;;0.70;;
26908;SDS011;14477;51.038;4.588;2022-08-06T04:14:45;1.50;;;0.80;;
26908;SDS011;14477;51.038;4.588;2022-08-06T04:17:11;1.57;;;0.80;;
26908;SDS011;14477;51.038;4.588;2022-08-06T04:19:37;1.85;;;0.70;;
26908;SDS011;14477;51.038;4.588;2022-08-06T04:22:03;0.75;;;0.75;;
26908;SDS011;14477;51.038;4.588;2022-08-06T04:24:30;0.73;;;0.70;;
26908;SDS011;14477;51.038;4.588;2022-08-06T04:26:56;0.77;;;0.70;;
26908;SDS011;14477;51.038;4.588;2022-08-06T04:29:24;0.75;;;0.73;;
26908;SDS011;14477;51.038;4.588;2022-08-06T04:31:50;3.38;;;0.80;;
26908;SDS011;14477;51.038;4.588;2022-08-06T04:34:20;2.00;;;0.80;;
26908;SDS011;14477;51.038;4.588;2022-08-06T04:36:48;1.13;;;0.70;;
26908;SDS011;14477;51.038;4.588;2022-08-06T04:39:15;0.80;;;0.80;;
26908;SDS011;14477;51.038;4.588;2022-08-06T04:41:42;1.00;;;0.80;;
26908;SDS011;14477;51.038;4.588;2022-08-06T04:44:08;1.08;;;0.77;;
26908;SDS011;14477;51.038;4.588;2022-08-06T04:46:35;1.00;;;0.70;;
26908;SDS011;14477;51.038;4.588;2022-08-06T04:49:00;2.90;;;0.77;;
26908;SDS011;14477;51.038;4.588;2022-08-06T04:51:26;1.23;;;0.80;;
26908;SDS011;14477;51.038;4.588;2022-08-06T04:53:52;1.23;;;0.80;;
26908;SDS011;14477;51.038;4.588;2022-08-06T04:56:18;1.23;;;0.87;;
26908;SDS011;14477;51.038;4.588;2022-08-06T04:58:44;1.10;;;0.77;;
26908;SDS011;14477;51.038;4.588;2022-08-06T05:01:10;2.10;;;0.85;;
26908;SDS011;14477;51.038;4.588;2022-08-06T05:03:36;0.85;;;0.77;;
26908;SDS011;14477;51.038;4.588;2022-08-06T05:06:03;1.00;;;0.87;;
26908;SDS011;14477;51.038;4.588;2022-08-06T05:08:35;1.30;;;0.90;;
26908;SDS011;14477;51.038;4.588;2022-08-06T05:11:12;1.50;;;1.05;;
26908;SDS011;14477;51.038;4.588;2022-08-06T05:13:44;2.25;;;0.90;;
26908;SDS011;14477;51.038;4.588;2022-08-06T05:16:12;1.20;;;0.80;;
26908;SDS011;14477;51.038;4.588;2022-08-06T05:18:42;1.30;;;0.95;;
26908;SDS011;14477;51.038;4.588;2022-08-06T05:21:12;1.33;;;1.10;;
26908;SDS011;14477;51.038;4.588;2022-08-06T05:23:44;1.33;;;1.02;;
26908;SDS011;14477;51.038;4.588;2022-08-06T05:26:12;1.50;;;1.00;;
26908;SDS011;14477;51.038;4.588;2022-08-06T05:28:39;2.90;;;1.10;;
26908;SDS011;14477;51.038;4.588;2022-08-06T05:31:05;2.13;;;1.00;;
26908;SDS011;14477;51.038;4.588;2022-08-06T05:33:32;1.55;;;1.00;;
26908;SDS011;14477;51.038;4.588;2022-08-06T05:36:01;1.10;;;1.00;;
26908;SDS011;14477;51.038;4.588;2022-08-06T05:38:29;1.40;;;1.05;;
26908;SDS011;14477;51.038;4.588;2022-08-06T05:40:56;1.65;;;1.00;;
26908;SDS011;14477;51.038;4.588;2022-08-06T05:43:22;2.33;;;1.00;;
26908;SDS011;14477;51.038;4.588;2022-08-06T05:45:49;1.13;;;0.90;;
26908;SDS011;14477;51.038;4.588;2022-08-06T05:48:18;2.03;;;1.10;;
26908;SDS011;14477;51.038;4.588;2022-08-06T05:50:56;1.90;;;1.00;;
26908;SDS011;14477;51.038;4.588;2022-08-06T05:53:30;1.52;;;1.02;;
26908;SDS011;14477;51.038;4.588;2022-08-06T05:56:02;1.43;;;0.90;;
26908;SDS011;14477;51.038;4.588;2022-08-06T05:58:42;1.45;;;0.95;;
26908;SDS011;14477;51.038;4.588;2022-08-06T06:01:12;2.10;;;1.13;;
26908;SDS011;14477;51.038;4.588;2022-08-06T06:03:39;1.70;;;1.10;;
26908;SDS011;14477;51.038;4.588;2022-08-06T06:06:06;1.33;;;0.98;;
26908;SDS011;14477;51.038;4.588;2022-08-06T06:08:34;2.33;;;1.00;;
26908;SDS011;14477;51.038;4.588;2022-08-06T06:11:01;2.75;;;0.95;;
26908;SDS011;14477;51.038;4.588;2022-08-06T06:13:29;1.85;;;1.23;;
26908;SDS011;14477;51.038;4.588;2022-08-06T06:24:25;3.15;;;0.95;;
26908;SDS011;14477;51.038;4.588;2022-08-06T06:29:59;3.30;;;1.05;;
26908;SDS011;14477;51.038;4.588;2022-08-06T06:46:38;3.53;;;1.20;;
26908;SDS011;14477;51.038;4.588;2022-08-06T06:51:54;1.27;;;0.93;;
26908;SDS011;14477;51.038;4.588;2022-08-06T06:54:31;1.65;;;0.90;;
26908;SDS011;14477;51.038;4.588;2022-08-06T06:57:00;1.85;;;1.00;;
26908;SDS011;14477;51.038;4.588;2022-08-06T06:59:35;1.77;;;1.20;;
26908;SDS011;14477;51.038;4.588;2022-08-06T07:02:04;1.90;;;1.20;;
26908;SDS011;14477;51.038;4.588;2022-08-06T07:04:31;2.22;;;1.17;;
26908;SDS011;14477;51.038;4.588;2022-08-06T07:07:00;1.75;;;1.08;;
26908;SDS011;14477;51.038;4.588;2022-08-06T07:09:28;2.00;;;1.20;;
26908;SDS011;14477;51.038;4.588;2022-08-06T07:11:56;1.52;;;1.10;;
26908;SDS011;14477;51.038;4.588;2022-08-06T07:14:24;2.33;;;1.23;;
26908;SDS011;14477;51.038;4.588;2022-08-06T07:16:52;1.35;;;1.00;;
26908;SDS011;14477;51.038;4.588;2022-08-06T07:19:20;2.10;;;0.90;;
26908;SDS011;14477;51.038;4.588;2022-08-06T07:21:49;3.47;;;1.00;;
26908;SDS011;14477;51.038;4.588;2022-08-06T07:24:15;1.42;;;1.00;;
26908;SDS011;14477;51.038;4.588;2022-08-06T07:26:43;1.70;;;0.80;;
26908;SDS011;14477;51.038;4.588;2022-08-06T07:29:11;2.05;;;0.90;;
26908;SDS011;14477;51.038;4.588;2022-08-06T07:31:40;3.97;;;1.02;;
26908;SDS011;14477;51.038;4.588;2022-08-06T07:34:07;1.30;;;0.80;;
26908;SDS011;14477;51.038;4.588;2022-08-06T07:36:36;2.97;;;1.00;;
26908;SDS011;14477;51.038;4.588;2022-08-06T07:39:07;1.70;;;0.80;;
26908;SDS011;14477;51.038;4.588;2022-08-06T07:41:35;1.48;;;0.80;;
26908;SDS011;14477;51.038;4.588;2022-08-06T07:44:02;1.27;;;0.82;;
26908;SDS011;14477;51.038;4.588;2022-08-06T07:46:38;2.22;;;0.90;;
26908;SDS011;14477;51.038;4.588;2022-08-06T07:49:06;1.92;;;0.90;;
26908;SDS011;14477;51.038;4.588;2022-08-06T07:51:39;2.63;;;1.00;;
26908;SDS011;14477;51.038;4.588;2022-08-06T07:54:08;1.42;;;0.80;;
26908;SDS011;14477;51.038;4.588;2022-08-06T07:56:35;1.38;;;0.68;;
26908;SDS011;14477;51.038;4.588;2022-08-06T07:59:04;3.17;;;0.70;;
26908;SDS011;14477;51.038;4.588;2022-08-06T08:01:31;1.08;;;0.70;;
26908;SDS011;14477;51.038;4.588;2022-08-06T08:03:58;0.80;;;0.70;;
26908;SDS011;14477;51.038;4.588;2022-08-06T08:06:43;1.95;;;0.75;;
26908;SDS011;14477;51.038;4.588;2022-08-06T08:09:13;1.10;;;0.70;;
26908;SDS011;14477;51.038;4.588;2022-08-06T08:11:42;1.60;;;0.90;;
26908;SDS011;14477;51.038;4.588;2022-08-06T08:14:10;1.45;;;0.70;;
26908;SDS011;14477;51.038;4.588;2022-08-06T08:16:37;0.60;;;0.60;;
26908;SDS011;14477;51.038;4.588;2022-08-06T08:21:47;1.40;;;0.70;;
26908;SDS011;14477;51.038;4.588;2022-08-06T08:24:14;1.42;;;0.60;;
26908;SDS011;14477;51.038;4.588;2022-08-06T08:26:41;1.27;;;0.70;;
26908;SDS011;14477;51.038;4.588;2022-08-06T08:29:07;2.47;;;0.70;;
26908;SDS011;14477;51.038;4.588;2022-08-06T08:31:35;1.58;;;0.80;;
26908;SDS011;14477;51.038;4.588;2022-08-06T08:34:01;1.10;;;0.68;;
26908;SDS011;14477;51.038;4.588;2022-08-06T08:36:27;0.82;;;0.60;;
26908;SDS011;14477;51.038;4.588;2022-08-06T08:38:53;0.90;;;0.70;;
26908;SDS011;14477;51.038;4.588;2022-08-06T08:41:25;0.77;;;0.60;;
26908;SDS011;14477;51.038;4.588;2022-08-06T08:43:56;1.02;;;0.60;;
26908;SDS011;14477;51.038;4.588;2022-08-06T08:46:25;1.42;;;0.65;;
26908;SDS011;14477;51.038;4.588;2022-08-06T08:48:52;0.98;;;0.60;;
26908;SDS011;14477;51.038;4.588;2022-08-06T08:51:21;1.07;;;0.67;;
26908;SDS011;14477;51.038;4.588;2022-08-06T08:53:49;1.40;;;0.70;;
26908;SDS011;14477;51.038;4.588;2022-08-06T08:56:20;1.38;;;0.70;;
26908;SDS011;14477;51.038;4.588;2022-08-06T08:58:47;1.55;;;0.73;;
26908;SDS011;14477;51.038;4.588;2022-08-06T09:01:13;1.65;;;0.80;;
26908;SDS011;14477;51.038;4.588;2022-08-06T09:03:42;1.33;;;0.80;;
26908;SDS011;14477;51.038;4.588;2022-08-06T09:06:08;1.73;;;0.70;;
26908;SDS011;14477;51.038;4.588;2022-08-06T09:08:34;1.30;;;0.60;;
26908;SDS011;14477;51.038;4.588;2022-08-06T09:11:01;0.93;;;0.82;;
26908;SDS011;14477;51.038;4.588;2022-08-06T09:13:28;1.77;;;0.80;;
26908;SDS011;14477;51.038;4.588;2022-08-06T09:15:54;1.07;;;0.90;;
26908;SDS011;14477;51.038;4.588;2022-08-06T09:18:22;1.35;;;0.68;;
26908;SDS011;14477;51.038;4.588;2022-08-06T09:20:48;0.95;;;0.90;;
26908;SDS011;14477;51.038;4.588;2022-08-06T09:23:15;1.60;;;0.75;;
26908;SDS011;14477;51.038;4.588;2022-08-06T09:25:42;3.10;;;0.90;;
26908;SDS011;14477;51.038;4.588;2022-08-06T09:30:57;1.15;;;0.90;;
26908;SDS011;14477;51.038;4.588;2022-08-06T09:33:29;1.52;;;0.80;;
26908;SDS011;14477;51.038;4.588;2022-08-06T09:35:56;1.40;;;0.85;;
26908;SDS011;14477;51.038;4.588;2022-08-06T09:38:27;0.80;;;0.80;;
26908;SDS011;14477;51.038;4.588;2022-08-06T09:43:34;1.02;;;0.70;;
26908;SDS011;14477;51.038;4.588;2022-08-06T09:46:00;1.02;;;0.93;;
26908;SDS011;14477;51.038;4.588;2022-08-06T09:48:26;2.35;;;1.20;;
26908;SDS011;14477;51.038;4.588;2022-08-06T09:50:51;1.20;;;1.03;;
26908;SDS011;14477;51.038;4.588;2022-08-06T09:53:17;2.15;;;1.10;;
26908;SDS011;14477;51.038;4.588;2022-08-06T09:55:43;1.77;;;1.00;;
26908;SDS011;14477;51.038;4.588;2022-08-06T09:58:09;1.50;;;1.27;;
26908;SDS011;14477;51.038;4.588;2022-08-06T10:00:36;1.80;;;1.08;;
26908;SDS011;14477;51.038;4.588;2022-08-06T10:03:04;1.05;;;1.00;;
26908;SDS011;14477;51.038;4.588;2022-08-06T10:05:32;1.40;;;1.27;;
26908;SDS011;14477;51.038;4.588;2022-08-06T10:08:16;1.48;;;1.10;;
26908;SDS011;14477;51.038;4.588;2022-08-06T10:10:49;1.50;;;0.90;;
26908;SDS011;14477;51.038;4.588;2022-08-06T10:15:55;2.25;;;1.10;;
26908;SDS011;14477;51.038;4.588;2022-08-06T10:18:36;1.10;;;1.00;;
26908;SDS011;14477;51.038;4.588;2022-08-06T10:21:16;1.02;;;0.90;;
26908;SDS011;14477;51.038;4.588;2022-08-06T10:23:44;0.90;;;0.90;;
26908;SDS011;14477;51.038;4.588;2022-08-06T10:26:12;1.15;;;1.00;;
26908;SDS011;14477;51.038;4.588;2022-08-06T10:28:48;1.20;;;1.00;;
26908;SDS011;14477;51.038;4.588;2022-08-06T10:31:15;1.80;;;1.40;;
26908;SDS011;14477;51.038;4.588;2022-08-06T10:33:47;1.17;;;1.00;;
26908;SDS011;14477;51.038;4.588;2022-08-06T10:36:15;0.90;;;0.90;;
26908;SDS011;14477;51.038;4.588;2022-08-06T10:38:44;0.60;;;0.60;;
26908;SDS011;14477;51.038;4.588;2022-08-06T10:41:13;1.05;;;1.00;;
26908;SDS011;14477;51.038;4.588;2022-08-06T10:43:40;2.33;;;1.30;;
26908;SDS011;14477;51.038;4.588;2022-08-06T10:46:08;1.27;;;1.17;;
26908;SDS011;14477;51.038;4.588;2022-08-06T10:48:35;1.10;;;1.02;;
26908;SDS011;14477;51.038;4.588;2022-08-06T10:51:04;1.50;;;1.17;;
26908;SDS011;14477;51.038;4.588;2022-08-06T10:53:32;1.77;;;1.30;;
26908;SDS011;14477;51.038;4.588;2022-08-06T10:56:00;1.45;;;0.85;;
26908;SDS011;14477;51.038;4.588;2022-08-06T10:58:28;1.20;;;1.10;;
26908;SDS011;14477;51.038;4.588;2022-08-06T11:00:55;1.33;;;1.23;;
26908;SDS011;14477;51.038;4.588;2022-08-06T11:04:11;1.30;;;1.13;;
26908;SDS011;14477;51.038;4.588;2022-08-06T11:06:33;1.40;;;0.90;;
26908;SDS011;14477;51.038;4.588;2022-08-06T11:09:15;1.13;;;1.02;;
26908;SDS011;14477;51.038;4.588;2022-08-06T11:14:59;1.05;;;0.85;;
26908;SDS011;14477;51.038;4.588;2022-08-06T11:17:25;1.75;;;1.10;;
26908;SDS011;14477;51.038;4.588;2022-08-06T11:23:00;0.80;;;0.80;;
26908;SDS011;14477;51.038;4.588;2022-08-06T11:28:09;1.13;;;1.02;;
26908;SDS011;14477;51.038;4.588;2022-08-06T11:33:11;0.90;;;0.80;;
26908;SDS011;14477;51.038;4.588;2022-08-06T11:35:40;1.10;;;1.00;;
26908;SDS011;14477;51.038;4.588;2022-08-06T11:38:09;1.30;;;1.20;;
26908;SDS011;14477;51.038;4.588;2022-08-06T11:41:22;1.63;;;1.20;;
26908;SDS011;14477;51.038;4.588;2022-08-06T11:43:42;1.40;;;1.30;;
26908;SDS011;14477;51.038;4.588;2022-08-06T11:54:17;1.08;;;0.93;;
26908;SDS011;14477;51.038;4.588;2022-08-06T11:59:38;0.90;;;0.90;;
26908;SDS011;14477;51.038;4.588;2022-08-06T12:07:38;2.25;;;1.13;;
26908;SDS011;14477;51.038;4.588;2022-08-06T12:20:33;1.42;;;1.20;;
26908;SDS011;14477;51.038;4.588;2022-08-06T12:23:03;1.20;;;1.10;;
26908;SDS011;14477;51.038;4.588;2022-08-06T12:25:35;0.88;;;0.88;;
26908;SDS011;14477;51.038;4.588;2022-08-06T12:28:14;1.10;;;1.00;;
26908;SDS011;14477;51.038;4.588;2022-08-06T12:30:45;1.00;;;0.70;;
26908;SDS011;14477;51.038;4.588;2022-08-06T12:33:12;1.20;;;0.80;;
26908;SDS011;14477;51.038;4.588;2022-08-06T12:35:51;0.90;;;0.90;;
26908;SDS011;14477;51.038;4.588;2022-08-06T12:38:18;1.20;;;1.10;;
26908;SDS011;14477;51.038;4.588;2022-08-06T12:40:51;1.00;;;1.00;;
26908;SDS011;14477;51.038;4.588;2022-08-06T12:43:21;0.90;;;0.90;;
26908;SDS011;14477;51.038;4.588;2022-08-06T12:45:55;0.80;;;0.80;;
26908;SDS011;14477;51.038;4.588;2022-08-06T12:48:21;1.23;;;1.13;;
26908;SDS011;14477;51.038;4.588;2022-08-06T12:50:47;1.00;;;1.00;;
26908;SDS011;14477;51.038;4.588;2022-08-06T12:53:13;0.90;;;0.90;;
26908;SDS011;14477;51.038;4.588;2022-08-06T12:58:09;2.45;;;1.10;;
26908;SDS011;14477;51.038;4.588;2022-08-06T13:00:36;1.27;;;1.00;;
26908;SDS011;14477;51.038;4.588;2022-08-06T13:03:03;1.10;;;1.00;;
26908;SDS011;14477;51.038;4.588;2022-08-06T13:05:31;1.35;;;1.25;;
26908;SDS011;14477;51.038;4.588;2022-08-06T13:07:58;1.17;;;1.10;;
26908;SDS011;14477;51.038;4.588;2022-08-06T13:10:25;1.33;;;1.13;;
26908;SDS011;14477;51.038;4.588;2022-08-06T13:12:58;1.03;;;0.90;;
26908;SDS011;14477;51.038;4.588;2022-08-06T13:15:27;1.08;;;1.00;;
26908;SDS011;14477;51.038;4.588;2022-08-06T13:18:05;1.55;;;1.10;;
26908;SDS011;14477;51.038;4.588;2022-08-06T13:20:46;0.95;;;0.95;;
26908;SDS011;14477;51.038;4.588;2022-08-06T13:23:13;1.10;;;1.00;;
26908;SDS011;14477;51.038;4.588;2022-08-06T13:25:44;1.70;;;0.90;;
26908;SDS011;14477;51.038;4.588;2022-08-06T13:28:15;1.00;;;0.90;;
26908;SDS011;14477;51.038;4.588;2022-08-06T13:30:42;1.70;;;0.80;;
26908;SDS011;14477;51.038;4.588;2022-08-06T13:33:15;1.67;;;0.80;;
26908;SDS011;14477;51.038;4.588;2022-08-06T13:35:44;1.30;;;0.90;;
26908;SDS011;14477;51.038;4.588;2022-08-06T13:38:10;1.63;;;0.73;;
26908;SDS011;14477;51.038;4.588;2022-08-06T13:43:11;1.23;;;0.80;;
26908;SDS011;14477;51.038;4.588;2022-08-06T13:45:37;1.00;;;0.93;;
26908;SDS011;14477;51.038;4.588;2022-08-06T13:48:08;1.83;;;0.90;;
26908;SDS011;14477;51.038;4.588;2022-08-06T13:50:35;0.70;;;0.70;;
26908;SDS011;14477;51.038;4.588;2022-08-06T13:53:07;1.40;;;0.80;;
26908;SDS011;14477;51.038;4.588;2022-08-06T13:55:33;1.08;;;0.80;;
26908;SDS011;14477;51.038;4.588;2022-08-06T13:58:01;1.25;;;1.15;;
26908;SDS011;14477;51.038;4.588;2022-08-06T14:00:27;1.60;;;1.07;;
26908;SDS011;14477;51.038;4.588;2022-08-06T14:02:53;0.80;;;0.80;;
26908;SDS011;14477;51.038;4.588;2022-08-06T14:05:22;0.75;;;0.73;;
26908;SDS011;14477;51.038;4.588;2022-08-06T14:07:48;1.13;;;0.80;;
26908;SDS011;14477;51.038;4.588;2022-08-06T14:10:14;1.13;;;0.90;;
26908;SDS011;14477;51.038;4.588;2022-08-06T14:12:42;1.20;;;1.00;;
26908;SDS011;14477;51.038;4.588;2022-08-06T14:15:08;1.73;;;1.20;;
26908;SDS011;14477;51.038;4.588;2022-08-06T14:17:34;1.98;;;1.13;;
26908;SDS011;14477;51.038;4.588;2022-08-06T14:20:00;1.10;;;1.00;;
26908;SDS011;14477;51.038;4.588;2022-08-06T14:22:29;1.33;;;1.10;;
26908;SDS011;14477;51.038;4.588;2022-08-06T14:24:55;1.20;;;1.10;;
26908;SDS011;14477;51.038;4.588;2022-08-06T14:27:20;0.90;;;0.80;;
26908;SDS011;14477;51.038;4.588;2022-08-06T14:29:46;1.40;;;0.85;;
26908;SDS011;14477;51.038;4.588;2022-08-06T14:32:12;1.02;;;0.95;;
26908;SDS011;14477;51.038;4.588;2022-08-06T14:34:38;1.20;;;0.80;;
26908;SDS011;14477;51.038;4.588;2022-08-06T14:37:04;1.10;;;0.90;;
26908;SDS011;14477;51.038;4.588;2022-08-06T14:39:29;1.37;;;1.00;;
26908;SDS011;14477;51.038;4.588;2022-08-06T14:41:55;1.60;;;0.90;;
26908;SDS011;14477;51.038;4.588;2022-08-06T14:44:39;1.10;;;0.90;;
26908;SDS011;14477;51.038;4.588;2022-08-06T14:47:20;0.95;;;0.90;;
26908;SDS011;14477;51.038;4.588;2022-08-06T14:49:46;1.80;;;1.00;;
26908;SDS011;14477;51.038;4.588;2022-08-06T14:52:12;1.10;;;1.00;;
26908;SDS011;14477;51.038;4.588;2022-08-06T14:54:38;1.33;;;1.00;;
26908;SDS011;14477;51.038;4.588;2022-08-06T14:57:05;1.30;;;1.17;;
26908;SDS011;14477;51.038;4.588;2022-08-06T14:59:32;1.75;;;0.93;;
26908;SDS011;14477;51.038;4.588;2022-08-06T15:01:59;1.20;;;1.00;;
26908;SDS011;14477;51.038;4.588;2022-08-06T15:04:24;3.20;;;1.00;;
26908;SDS011;14477;51.038;4.588;2022-08-06T15:06:53;1.25;;;0.95;;
26908;SDS011;14477;51.038;4.588;2022-08-06T15:09:20;1.40;;;1.00;;
26908;SDS011;14477;51.038;4.588;2022-08-06T15:11:47;1.67;;;1.02;;
26908;SDS011;14477;51.038;4.588;2022-08-06T15:14:13;1.43;;;0.90;;
26908;SDS011;14477;51.038;4.588;2022-08-06T15:16:41;1.00;;;0.90;;
26908;SDS011;14477;51.038;4.588;2022-08-06T15:19:06;1.13;;;1.00;;
26908;SDS011;14477;51.038;4.588;2022-08-06T15:21:32;1.10;;;1.00;;
26908;SDS011;14477;51.038;4.588;2022-08-06T15:23:58;2.17;;;1.20;;
26908;SDS011;14477;51.038;4.588;2022-08-06T15:26:25;1.45;;;1.00;;
26908;SDS011;14477;51.038;4.588;2022-08-06T15:28:52;1.65;;;0.90;;
26908;SDS011;14477;51.038;4.588;2022-08-06T15:31:18;1.48;;;0.93;;
26908;SDS011;14477;51.038;4.588;2022-08-06T15:33:45;2.22;;;1.00;;
26908;SDS011;14477;51.038;4.588;2022-08-06T15:36:11;1.37;;;1.17;;
26908;SDS011;14477;51.038;4.588;2022-08-06T15:38:37;1.77;;;1.00;;
26908;SDS011;14477;51.038;4.588;2022-08-06T15:41:04;1.17;;;0.90;;
26908;SDS011;14477;51.038;4.588;2022-08-06T15:43:31;1.35;;;0.90;;
26908;SDS011;14477;51.038;4.588;2022-08-06T15:45:57;1.85;;;1.10;;
26908;SDS011;14477;51.038;4.588;2022-08-06T15:48:28;1.03;;;0.97;;
26908;SDS011;14477;51.038;4.588;2022-08-06T15:50:55;1.65;;;1.10;;
26908;SDS011;14477;51.038;4.588;2022-08-06T15:53:22;2.20;;;1.13;;
26908;SDS011;14477;51.038;4.588;2022-08-06T15:55:48;1.17;;;1.00;;
26908;SDS011;14477;51.038;4.588;2022-08-06T15:58:14;1.10;;;1.00;;
26908;SDS011;14477;51.038;4.588;2022-08-06T16:00:40;1.65;;;1.15;;
26908;SDS011;14477;51.038;4.588;2022-08-06T16:03:07;2.15;;;1.30;;
26908;SDS011;14477;51.038;4.588;2022-08-06T16:05:35;1.23;;;1.10;;
26908;SDS011;14477;51.038;4.588;2022-08-06T16:08:02;1.20;;;1.10;;
26908;SDS011;14477;51.038;4.588;2022-08-06T16:10:28;1.20;;;1.10;;
26908;SDS011;14477;51.038;4.588;2022-08-06T16:12:54;1.23;;;1.02;;
26908;SDS011;14477;51.038;4.588;2022-08-06T16:15:20;1.80;;;1.00;;
26908;SDS011;14477;51.038;4.588;2022-08-06T16:17:46;2.10;;;1.30;;
26908;SDS011;14477;51.038;4.588;2022-08-06T16:20:13;1.13;;;1.00;;
26908;SDS011;14477;51.038;4.588;2022-08-06T16:22:40;1.20;;;1.00;;
26908;SDS011;14477;51.038;4.588;2022-08-06T16:25:06;1.90;;;0.90;;
26908;SDS011;14477;51.038;4.588;2022-08-06T16:27:32;1.20;;;1.10;;